KHOP/HOP METAR and TAF weather

Enter ICAO airport designator
Station Type Date Time Source
KHOP METAR 2019/06/17 04:56 UTC NOAA

KHOP 170456Z AUTO 00000KT 10SM SCT130 23/22 A2995 RMK AO2 SLP138 T02300216


Station Type Date Time Source
KHOP Decoded METAR 2019/06/17 04:56 UTC NOAA

Fort Campbell U. S. Army Airfield, KY, United States (KHOP) 36-40N 087-30W 174M
Jun 17, 2019 - 12:56 AM EDT / 2019.06.17 0456 UTC
Wind: Calm:0
Visibility: 10 mile(s):0
Sky conditions: partly cloudy
Temperature: 73.4 F (23.0 C)
Dew Point: 70.9 F (21.6 C)
Relative Humidity: 91%
Pressure (altimeter): 29.95 in. Hg (1014 hPa)
ob: KHOP 170456Z AUTO 00000KT 10SM SCT130 23/22 A2995 RMK AO2 SLP138 T02300216
cycle: 5

Station Type Date Time Source
KHOP TAF 2019/06/17 01:51 UTC NOAA

TAF
AMD KHOP 170140Z 1701/1806 22015G25KT 9999 SCT040 QNH2983INS
TEMPO 1702/1703 25015G38KT 6000 -RA BKN020 OVC040 510002
BECMG 1702/1703 VRB06KT 8000 BR BKN030 QNH2992INS
BECMG 1712/1713 22009KT 9999 NSW BKN030 QNH2998INS
BECMG 1715/1716 22012G18KT 9999 SCT040 QNH2996INS
BECMG 1721/1722 22009KT 9999 VCTS BKN020CB QNH2986INS TX31/1720Z TN22/1708Z

Example: see airport list